createdAt,value
2018-12-23T00:00:13.088Z,1.77
2018-12-23T00:02:55.674Z,2.70
2018-12-23T00:05:23.934Z,2.40
2018-12-23T00:07:52.124Z,2.30
2018-12-23T00:10:23.646Z,2.43
2018-12-23T00:12:51.794Z,2.30
2018-12-23T00:15:19.998Z,2.17
2018-12-23T00:17:48.167Z,2.77
2018-12-23T00:20:19.518Z,3.73
2018-12-23T00:22:47.751Z,1.93
2018-12-23T00:25:15.952Z,3.27
2018-12-23T00:27:44.131Z,1.80
2018-12-23T00:30:15.742Z,1.87
2018-12-23T00:32:43.980Z,2.27
2018-12-23T00:35:24.881Z,2.90
2018-12-23T00:37:53.190Z,2.80
2018-12-23T00:40:24.566Z,2.87
2018-12-23T00:42:52.793Z,2.63
2018-12-23T00:45:21.013Z,2.50
2018-12-23T00:47:49.246Z,2.20
2018-12-23T00:50:20.300Z,2.20
2018-12-23T00:53:01.518Z,2.23
2018-12-23T00:55:29.738Z,3.27
2018-12-23T00:57:57.951Z,1.80
2018-12-23T01:00:29.460Z,2.77
2018-12-23T01:02:57.666Z,2.20
2018-12-23T01:05:28.894Z,1.83
2018-12-23T01:07:56.148Z,1.60
2018-12-23T01:10:27.552Z,1.53
2018-12-23T01:12:55.742Z,1.63
2018-12-23T01:15:27.590Z,1.30
2018-12-23T01:17:55.917Z,1.63
2018-12-23T01:20:30.161Z,1.60
2018-12-23T01:22:58.380Z,1.53
2018-12-23T01:25:26.545Z,1.60
2018-12-23T01:27:54.744Z,1.63
2018-12-23T01:30:26.567Z,1.60
2018-12-23T01:32:54.753Z,1.40
2018-12-23T01:35:22.978Z,1.70
2018-12-23T01:37:51.171Z,1.53
2018-12-23T01:40:23.079Z,1.70
2018-12-23T01:42:51.295Z,1.80
2018-12-23T01:45:19.573Z,1.90
2018-12-23T01:47:47.759Z,1.63
2018-12-23T01:50:19.816Z,1.80
2018-12-23T01:52:47.983Z,1.70
2018-12-23T01:55:16.179Z,1.70
2018-12-23T01:57:44.356Z,2.00
2018-12-23T02:00:16.266Z,1.93
2018-12-23T02:02:44.458Z,1.63
2018-12-23T02:05:12.755Z,2.20
2018-12-23T02:07:40.944Z,1.73
2018-12-23T02:10:09.213Z,2.10
2018-12-23T02:12:37.428Z,1.90
2018-12-23T02:15:05.672Z,1.80
2018-12-23T02:17:33.854Z,2.20
2018-12-23T02:20:06.170Z,2.47
2018-12-23T02:22:34.481Z,1.80
2018-12-23T02:25:02.771Z,2.20
2018-12-23T02:27:31.028Z,2.07
2018-12-23T02:29:59.231Z,2.33
2018-12-23T02:32:27.409Z,2.17
2018-12-23T02:34:55.598Z,3.43
2018-12-23T02:37:23.818Z,2.50
2018-12-23T02:40:06.070Z,2.40
2018-12-23T02:42:34.252Z,2.87
2018-12-23T02:45:02.473Z,2.43
2018-12-23T02:47:30.674Z,2.77
2018-12-23T02:49:58.867Z,3.00
2018-12-23T02:52:27.033Z,4.53
2018-12-23T02:54:55.221Z,2.30
2018-12-23T02:57:23.399Z,2.77
2018-12-23T02:59:55.001Z,3.43
2018-12-23T03:02:23.159Z,2.20
2018-12-23T03:04:51.431Z,2.20
2018-12-23T03:07:19.583Z,2.00
2018-12-23T03:09:48.079Z,2.53
2018-12-23T03:12:16.276Z,1.90
2018-12-23T03:14:44.545Z,1.90
2018-12-23T03:17:12.828Z,2.10
2018-12-23T03:19:41.032Z,2.07
2018-12-23T03:22:12.652Z,2.40
2018-12-23T03:24:41.362Z,2.27
2018-12-23T03:27:09.585Z,2.60
2018-12-23T03:29:37.740Z,3.03
2018-12-23T03:32:09.782Z,2.30
2018-12-23T03:34:37.972Z,2.47
2018-12-23T03:37:06.193Z,3.40
2018-12-23T03:39:34.421Z,4.00
2018-12-23T03:42:05.842Z,2.70
2018-12-23T03:44:34.001Z,3.07
2018-12-23T03:47:02.184Z,4.37
2018-12-23T03:49:30.364Z,3.27
2018-12-23T03:52:02.016Z,3.27
2018-12-23T03:54:30.164Z,4.27
2018-12-23T03:56:58.416Z,4.43
2018-12-23T03:59:26.604Z,4.13
2018-12-23T04:02:07.136Z,4.73
2018-12-23T04:04:35.322Z,3.47
2018-12-23T04:07:03.529Z,4.43
2018-12-23T04:09:31.721Z,4.07
2018-12-23T04:12:05.628Z,3.80
2018-12-23T04:14:33.812Z,4.63
2018-12-23T04:17:02.083Z,3.77
2018-12-23T04:19:30.271Z,3.70
2018-12-23T04:22:01.678Z,4.57
2018-12-23T04:24:30.012Z,3.33
2018-12-23T04:26:58.226Z,4.97
2018-12-23T04:29:26.419Z,4.47
2018-12-23T04:31:57.737Z,3.27
2018-12-23T04:34:25.935Z,3.70
2018-12-23T04:36:54.117Z,4.37
2018-12-23T04:39:22.307Z,4.03
2018-12-23T04:41:56.345Z,4.60
2018-12-23T04:44:24.559Z,4.33
2018-12-23T04:46:52.776Z,3.33
2018-12-23T04:49:21.203Z,4.43
2018-12-23T04:51:52.670Z,3.40
2018-12-23T04:54:20.895Z,4.23
2018-12-23T04:56:49.097Z,4.30
2018-12-23T04:59:17.322Z,3.43
2018-12-23T05:01:48.560Z,4.37
2018-12-23T05:04:16.783Z,3.77
2018-12-23T05:06:44.951Z,3.87
2018-12-23T05:09:13.113Z,3.60
2018-12-23T05:11:44.369Z,3.53
2018-12-23T05:14:12.521Z,5.97
2018-12-23T05:16:40.712Z,4.07
2018-12-23T05:19:09.081Z,3.90
2018-12-23T05:21:41.233Z,8.27
2018-12-23T05:24:10.458Z,4.10
2018-12-23T05:26:53.821Z,6.40
2018-12-23T05:29:22.024Z,8.23
2018-12-23T05:31:53.097Z,6.17
2018-12-23T05:34:21.343Z,5.03
2018-12-23T05:36:52.523Z,8.83
2018-12-23T05:39:19.845Z,7.97
2018-12-23T05:41:51.508Z,9.83
2018-12-23T05:44:19.803Z,9.43
2018-12-23T05:46:47.989Z,10.20
2018-12-23T05:49:16.203Z,11.93
2018-12-23T05:51:47.712Z,9.87
2018-12-23T05:54:15.931Z,9.67
2018-12-23T05:56:44.111Z,7.77
2018-12-23T05:59:12.313Z,6.97
2018-12-23T06:01:43.770Z,7.60
2018-12-23T06:04:11.967Z,8.73
2018-12-23T06:06:40.202Z,11.13
2018-12-23T06:09:08.447Z,6.30
2018-12-23T06:11:40.605Z,8.40
2018-12-23T06:14:08.822Z,5.83
2018-12-23T06:16:36.983Z,5.40
2018-12-23T06:19:05.193Z,5.63
2018-12-23T06:21:36.611Z,5.90
2018-12-23T06:24:04.856Z,13.50
2018-12-23T06:26:39.328Z,9.40
2018-12-23T06:29:07.530Z,5.83
2018-12-23T06:31:39.222Z,5.63
2018-12-23T06:34:07.472Z,7.43
2018-12-23T06:36:35.691Z,4.33
2018-12-23T06:39:05.541Z,6.87
2018-12-23T06:41:54.005Z,5.53
2018-12-23T06:44:22.849Z,6.83
2018-12-23T06:46:51.157Z,6.03
2018-12-23T06:49:19.387Z,6.97
2018-12-23T06:51:51.215Z,7.93
2018-12-23T06:54:19.420Z,6.17
2018-12-23T06:56:47.627Z,4.57
2018-12-23T06:59:15.873Z,6.93
2018-12-23T07:01:47.226Z,6.53
2018-12-23T07:04:15.399Z,6.33
2018-12-23T07:06:43.605Z,4.80
2018-12-23T07:09:11.756Z,4.80
2018-12-23T07:11:46.030Z,4.57
2018-12-23T07:14:14.245Z,6.57
2018-12-23T07:16:42.565Z,4.57
2018-12-23T07:19:10.796Z,6.07
2018-12-23T07:21:42.491Z,6.83
2018-12-23T07:24:10.816Z,5.17
2018-12-23T07:26:39.047Z,4.03
2018-12-23T07:29:07.280Z,5.47
2018-12-23T07:31:38.987Z,8.73
2018-12-23T07:34:07.195Z,6.17
2018-12-23T07:36:35.377Z,6.60
2018-12-23T07:39:04.790Z,8.13
2018-12-23T07:41:36.310Z,6.80
2018-12-23T07:44:04.553Z,8.10
2018-12-23T07:46:32.794Z,7.73
2018-12-23T07:49:00.956Z,5.83
2018-12-23T07:51:32.758Z,4.80
2018-12-23T07:54:00.960Z,7.30
2018-12-23T07:56:29.255Z,6.63
2018-12-23T07:58:57.967Z,8.30
2018-12-23T08:01:29.751Z,4.87
2018-12-23T08:03:58.744Z,5.63
2018-12-23T08:06:27.035Z,7.37
2018-12-23T08:08:55.236Z,5.93
2018-12-23T08:11:26.619Z,7.07
2018-12-23T08:13:54.860Z,8.87
2018-12-23T08:16:23.052Z,10.83
2018-12-23T08:18:51.271Z,6.33
2018-12-23T08:21:22.749Z,6.50
2018-12-23T08:23:50.906Z,6.73
2018-12-23T08:26:19.256Z,5.70
2018-12-23T08:28:47.478Z,8.53
2018-12-23T08:31:19.583Z,10.43
2018-12-23T08:33:47.779Z,9.50
2018-12-23T08:36:15.999Z,8.50
2018-12-23T08:38:44.224Z,6.90
2018-12-23T08:41:15.731Z,6.03
2018-12-23T08:43:43.916Z,5.77
2018-12-23T08:46:12.364Z,8.93
2018-12-23T08:48:40.597Z,7.53
2018-12-23T08:51:12.104Z,7.20
2018-12-23T08:53:40.392Z,7.20
2018-12-23T08:56:08.773Z,9.37
2018-12-23T08:58:36.966Z,7.77
2018-12-23T09:01:08.852Z,17.93
2018-12-23T09:03:37.156Z,8.73
2018-12-23T09:06:05.370Z,5.20
2018-12-23T09:08:33.551Z,6.47
2018-12-23T09:11:05.205Z,7.90
2018-12-23T09:13:33.415Z,4.43
2018-12-23T09:16:14.428Z,10.10
2018-12-23T09:18:42.633Z,5.47
2018-12-23T09:21:11.212Z,7.60
2018-12-23T09:23:39.466Z,7.70
2018-12-23T09:26:10.842Z,6.40
2018-12-23T09:28:39.143Z,8.53
2018-12-23T09:31:07.443Z,9.20
2018-12-23T09:33:35.605Z,8.20
2018-12-23T09:36:09.797Z,6.83
2018-12-23T09:38:38.059Z,5.73
2018-12-23T09:41:06.323Z,6.60
2018-12-23T09:43:34.502Z,6.37
2018-12-23T09:46:06.410Z,7.33
2018-12-23T09:48:34.628Z,8.97
2018-12-23T09:51:02.839Z,5.73
2018-12-23T09:53:31.035Z,6.27
2018-12-23T09:56:02.923Z,4.23
2018-12-23T09:58:31.106Z,9.20
2018-12-23T10:00:59.317Z,5.23
2018-12-23T10:03:27.500Z,9.20
2018-12-23T10:05:59.889Z,7.13
2018-12-23T10:08:28.076Z,8.20
2018-12-23T10:10:56.313Z,7.97
2018-12-23T10:13:24.542Z,7.63
2018-12-23T10:15:56.545Z,5.60
2018-12-23T10:18:24.886Z,9.83
2018-12-23T10:20:53.131Z,7.97
2018-12-23T10:23:21.302Z,6.07
2018-12-23T10:26:09.085Z,8.90
2018-12-23T10:28:37.401Z,9.17
2018-12-23T10:31:05.660Z,6.53
2018-12-23T10:33:39.945Z,7.97
2018-12-23T10:36:08.209Z,5.63
2018-12-23T10:38:36.369Z,5.73
2018-12-23T10:41:04.595Z,7.70
2018-12-23T10:43:34.112Z,4.97
2018-12-23T10:46:06.098Z,4.87
2018-12-23T10:48:34.341Z,6.00
2018-12-23T10:51:02.536Z,7.50
2018-12-23T10:53:30.688Z,6.13
2018-12-23T10:56:02.632Z,10.30
2018-12-23T10:58:30.836Z,5.63
2018-12-23T11:00:59.031Z,8.23
2018-12-23T11:03:27.321Z,5.07
2018-12-23T11:05:58.907Z,5.43
2018-12-23T11:08:27.574Z,7.13
2018-12-23T11:10:55.821Z,8.60
2018-12-23T11:13:24.041Z,8.03
2018-12-23T11:15:55.386Z,4.87
2018-12-23T11:18:24.073Z,7.50
2018-12-23T11:21:08.844Z,6.43
2018-12-23T11:23:37.503Z,6.67
2018-12-23T11:26:05.735Z,5.03
2018-12-23T11:28:33.993Z,4.83
2018-12-23T11:31:02.251Z,6.80
2018-12-23T11:33:30.636Z,9.20
2018-12-23T11:36:01.957Z,7.27
2018-12-23T11:38:35.509Z,7.07
2018-12-23T11:41:01.552Z,5.63
2018-12-23T11:43:29.744Z,7.50
2018-12-23T11:46:01.047Z,9.07
2018-12-23T11:48:29.238Z,8.37
2018-12-23T11:50:57.479Z,9.13
2018-12-23T11:53:25.645Z,6.73
2018-12-23T11:56:00.135Z,9.00
2018-12-23T11:58:28.550Z,5.47
2018-12-23T12:00:56.796Z,9.33
2018-12-23T12:03:26.861Z,7.47
2018-12-23T12:05:58.754Z,8.70
2018-12-23T12:08:26.979Z,8.07
2018-12-23T12:10:55.192Z,6.73
2018-12-23T12:13:23.672Z,5.30
2018-12-23T12:15:55.704Z,5.63
2018-12-23T12:18:23.900Z,7.00
2018-12-23T12:20:52.045Z,11.27
2018-12-23T12:23:20.210Z,9.10
2018-12-23T12:25:51.939Z,7.57
2018-12-23T12:28:20.151Z,9.20
2018-12-23T12:30:48.343Z,8.67
2018-12-23T12:33:47.905Z,7.27
2018-12-23T12:36:17.375Z,8.27
2018-12-23T12:38:52.131Z,9.67
2018-12-23T12:41:18.090Z,6.87
2018-12-23T12:43:47.631Z,5.90
2018-12-23T12:46:16.851Z,7.20
2018-12-23T12:48:46.098Z,10.57
2018-12-23T12:51:15.320Z,7.10
2018-12-23T12:53:44.575Z,10.27
2018-12-23T12:56:14.450Z,10.70
2018-12-23T12:58:44.296Z,12.07
2018-12-23T13:01:13.784Z,12.27
2018-12-23T13:03:43.030Z,11.87
2018-12-23T13:06:12.505Z,11.90
2018-12-23T13:08:41.976Z,11.50
2018-12-23T13:11:11.195Z,13.70
2018-12-23T13:13:40.416Z,14.40
2018-12-23T13:16:09.654Z,11.97
2018-12-23T13:18:38.919Z,8.50
2018-12-23T13:21:08.255Z,10.13
2018-12-23T13:23:37.510Z,12.73
2018-12-23T13:26:06.951Z,9.10
2018-12-23T13:28:36.158Z,14.63
2018-12-23T13:31:05.402Z,10.87
2018-12-23T13:33:35.350Z,7.47
2018-12-23T13:36:04.988Z,10.70
2018-12-23T13:38:34.431Z,7.03
2018-12-23T13:41:16.134Z,8.77
2018-12-23T13:43:56.123Z,8.97
2018-12-23T13:46:49.110Z,8.03
2018-12-23T13:49:54.360Z,13.83
2018-12-23T13:52:43.396Z,9.67
2018-12-23T13:55:37.224Z,10.20
2018-12-23T13:58:42.826Z,10.90
2018-12-23T14:01:30.126Z,9.83
2018-12-23T14:04:10.303Z,10.33
2018-12-23T14:07:09.723Z,10.10
2018-12-23T14:09:48.237Z,10.10
2018-12-23T14:12:17.446Z,9.30
2018-12-23T14:14:46.791Z,9.43
2018-12-23T14:17:16.083Z,12.30
2018-12-23T14:19:45.801Z,11.00
2018-12-23T14:22:15.348Z,11.23
2018-12-23T14:24:44.603Z,11.23
2018-12-23T14:27:14.070Z,9.30
2018-12-23T14:29:43.462Z,11.23
2018-12-23T14:32:12.661Z,9.80
2018-12-23T14:34:42.100Z,9.43
2018-12-23T14:37:11.564Z,9.10
2018-12-23T14:39:41.423Z,15.40
2018-12-23T14:42:11.244Z,10.23
2018-12-23T14:44:40.508Z,12.83
2018-12-23T14:47:09.741Z,12.60
2018-12-23T14:49:38.963Z,10.67
2018-12-23T14:52:08.221Z,13.00
2018-12-23T14:54:37.607Z,11.27
2018-12-23T14:57:07.425Z,9.93
2018-12-23T14:59:37.370Z,13.83
2018-12-23T15:02:06.935Z,8.83
2018-12-23T15:04:36.464Z,15.97
2018-12-23T15:07:05.738Z,12.60
2018-12-23T15:09:35.021Z,12.77
2018-12-23T15:12:04.477Z,12.57
2018-12-23T15:14:33.680Z,13.30
2018-12-23T15:17:03.132Z,15.03
2018-12-23T15:19:32.314Z,14.93
2018-12-23T15:22:01.551Z,9.70
2018-12-23T15:24:30.980Z,8.23
2018-12-23T15:27:00.166Z,9.80
2018-12-23T15:29:29.381Z,8.50
2018-12-23T15:31:58.840Z,12.83
2018-12-23T15:34:28.106Z,15.40
2018-12-23T15:36:57.587Z,14.70
2018-12-23T15:39:27.123Z,13.00
2018-12-23T15:41:56.407Z,11.23
2018-12-23T15:44:25.784Z,7.80
2018-12-23T15:46:55.401Z,14.70
2018-12-23T15:49:24.862Z,12.03
2018-12-23T15:51:54.013Z,7.67
2018-12-23T15:54:23.461Z,9.77
2018-12-23T15:56:52.645Z,9.23
2018-12-23T15:59:22.109Z,11.53
2018-12-23T16:01:51.544Z,8.90
2018-12-23T16:04:21.123Z,12.03
2018-12-23T16:06:50.610Z,12.23
2018-12-23T16:09:20.104Z,9.33
2018-12-23T16:11:49.379Z,14.40
2018-12-23T16:14:18.672Z,15.20
2018-12-23T16:16:47.890Z,15.43
2018-12-23T16:19:17.082Z,14.40
2018-12-23T16:21:46.824Z,14.23
2018-12-23T16:24:16.284Z,14.63
2018-12-23T16:26:45.508Z,17.00
2018-12-23T16:29:15.044Z,17.67
2018-12-23T16:31:44.278Z,16.03
2018-12-23T16:34:13.465Z,10.27
2018-12-23T16:36:42.686Z,11.03
2018-12-23T16:39:12.236Z,18.13
2018-12-23T16:41:44.369Z,11.97
2018-12-23T16:44:13.605Z,13.40
2018-12-23T16:46:42.839Z,16.43
2018-12-23T16:49:12.095Z,10.73
2018-12-23T16:51:41.293Z,11.40
2018-12-23T16:54:10.566Z,10.90
2018-12-23T16:56:39.767Z,10.63
2018-12-23T16:59:08.975Z,11.77
2018-12-23T17:01:38.202Z,8.20
2018-12-23T17:04:07.673Z,10.10
2018-12-23T17:06:37.137Z,9.77
2018-12-23T17:09:07.294Z,11.60
2018-12-23T17:11:36.574Z,12.63
2018-12-23T17:14:05.807Z,7.37
2018-12-23T17:16:35.056Z,9.83
2018-12-23T17:19:04.269Z,9.67
2018-12-23T17:21:33.442Z,7.77
2018-12-23T17:24:02.668Z,9.17
2018-12-23T17:26:31.891Z,11.97
2018-12-23T17:29:01.374Z,12.13
2018-12-23T17:31:31.492Z,9.30
2018-12-23T17:34:01.094Z,7.97
2018-12-23T17:36:32.073Z,5.30
2018-12-23T17:39:01.522Z,7.37
2018-12-23T17:41:30.987Z,8.70
2018-12-23T17:44:00.344Z,8.87
2018-12-23T17:46:29.806Z,11.00
2018-12-23T17:48:59.068Z,11.47
2018-12-23T17:51:28.254Z,11.50
2018-12-23T17:53:57.482Z,7.93
2018-12-23T17:56:26.953Z,9.60
2018-12-23T17:58:56.407Z,7.70
2018-12-23T18:01:25.593Z,7.60
2018-12-23T18:04:02.028Z,8.47
2018-12-23T18:06:25.740Z,6.37
2018-12-23T18:08:55.173Z,7.53
2018-12-23T18:11:24.746Z,7.13
2018-12-23T18:13:53.923Z,6.93
2018-12-23T18:16:23.420Z,7.20
2018-12-23T18:18:52.607Z,9.70
2018-12-23T18:21:21.803Z,7.20
2018-12-23T18:23:50.998Z,8.80
2018-12-23T18:26:20.210Z,7.07
2018-12-23T18:28:49.653Z,6.57
2018-12-23T18:31:19.124Z,7.23
2018-12-23T18:33:48.336Z,6.60
2018-12-23T18:36:17.547Z,6.37
2018-12-23T18:38:46.990Z,9.50
2018-12-23T18:41:16.210Z,6.23
2018-12-23T18:43:45.755Z,6.37
2018-12-23T18:46:14.958Z,7.37
2018-12-23T18:48:44.190Z,6.90
2018-12-23T18:53:50.013Z,8.53
2018-12-23T18:56:19.642Z,10.37
2018-12-23T18:58:49.117Z,7.30
2018-12-23T19:01:18.637Z,9.30
2018-12-23T19:03:47.851Z,6.53
2018-12-23T19:06:17.115Z,7.17
2018-12-23T19:08:49.611Z,7.77
2018-12-23T19:11:27.889Z,6.60
2018-12-23T19:14:27.664Z,9.33
2018-12-23T19:17:16.921Z,8.27
2018-12-23T19:19:51.797Z,8.80
2018-12-23T19:22:45.476Z,8.83
2018-12-23T19:25:26.277Z,6.37
2018-12-23T19:27:58.676Z,8.37
2018-12-23T19:30:47.294Z,7.20
2018-12-23T19:33:22.703Z,10.93
2018-12-23T19:36:15.422Z,8.80
2018-12-23T19:38:55.340Z,7.17
2018-12-23T19:41:50.362Z,8.77
2018-12-23T19:44:31.832Z,7.40
2018-12-23T19:47:24.076Z,8.90
2018-12-23T19:50:22.178Z,9.43
2018-12-23T19:53:18.801Z,10.03
2018-12-23T19:56:10.556Z,9.33
2018-12-23T19:59:05.662Z,8.53
2018-12-23T20:02:15.722Z,7.83
2018-12-23T20:05:27.738Z,8.87
2018-12-23T20:08:18.091Z,8.40
2018-12-23T20:11:18.027Z,7.93
2018-12-23T20:13:53.126Z,8.90
2018-12-23T20:16:45.980Z,8.33
2018-12-23T20:19:45.216Z,7.60
2018-12-23T20:22:29.425Z,10.23
2018-12-23T20:25:13.852Z,9.43
2018-12-23T20:28:00.099Z,9.40
2018-12-23T20:30:41.508Z,12.87
2018-12-23T20:33:32.048Z,11.17
2018-12-23T20:36:19.900Z,9.23
2018-12-23T20:39:08.899Z,9.83
2018-12-23T20:42:04.016Z,12.43
2018-12-23T20:45:11.132Z,11.43
2018-12-23T20:47:48.295Z,14.20
2018-12-23T20:50:23.421Z,10.83
2018-12-23T20:53:17.052Z,9.53
2018-12-23T20:55:57.614Z,7.70
2018-12-23T20:58:38.703Z,12.47
2018-12-23T21:01:48.642Z,6.23
2018-12-23T21:04:26.090Z,8.63
2018-12-23T21:07:13.299Z,7.03
2018-12-23T21:10:08.255Z,6.30
2018-12-23T21:12:47.214Z,9.50
2018-12-23T21:15:37.661Z,6.77
2018-12-23T21:18:13.857Z,6.20
2018-12-23T21:21:39.957Z,6.50
2018-12-23T21:24:30.945Z,7.30
2018-12-23T21:27:25.569Z,10.63
2018-12-23T21:30:19.039Z,10.80
2018-12-23T21:32:57.356Z,7.50
2018-12-23T21:35:44.861Z,7.80
2018-12-23T21:38:31.697Z,7.70
2018-12-23T21:41:31.915Z,5.10
2018-12-23T21:44:37.775Z,5.77
2018-12-23T21:47:13.098Z,5.20
2018-12-23T21:49:57.865Z,5.07
2018-12-23T21:53:22.177Z,3.57
2018-12-23T21:56:05.947Z,4.03
2018-12-23T21:58:56.612Z,3.43
2018-12-23T22:02:09.611Z,3.00
2018-12-23T22:04:44.737Z,2.67
2018-12-23T22:07:47.394Z,2.33
2018-12-23T22:10:25.679Z,2.33
2018-12-23T22:13:07.094Z,1.80
2018-12-23T22:15:36.603Z,1.80
2018-12-23T22:18:05.831Z,2.13
2018-12-23T22:20:35.351Z,3.00
2018-12-23T22:23:04.836Z,1.80
2018-12-23T22:25:34.074Z,2.40
2018-12-23T22:28:03.382Z,1.80
2018-12-23T22:30:32.694Z,2.10
2018-12-23T22:33:02.180Z,2.13
2018-12-23T22:35:31.377Z,1.83
2018-12-23T22:38:00.840Z,1.90
2018-12-23T22:40:30.301Z,2.07
2018-12-23T22:42:59.493Z,2.77
2018-12-23T22:45:28.986Z,2.20
2018-12-23T22:47:58.426Z,2.63
2018-12-23T22:50:27.937Z,2.17
2018-12-23T22:52:57.389Z,2.17
2018-12-23T22:55:26.631Z,2.60
2018-12-23T22:57:57.907Z,1.63
2018-12-23T23:00:28.576Z,2.00
2018-12-23T23:02:58.049Z,1.70
2018-12-23T23:05:27.505Z,1.70
2018-12-23T23:07:56.735Z,1.73
2018-12-23T23:10:25.959Z,2.13
2018-12-23T23:12:55.188Z,2.40
2018-12-23T23:15:24.443Z,2.67
2018-12-23T23:17:53.664Z,2.27
2018-12-23T23:20:23.168Z,2.20
2018-12-23T23:22:52.395Z,2.40
2018-12-23T23:25:21.923Z,3.10
2018-12-23T23:27:51.723Z,3.43
2018-12-23T23:30:21.789Z,2.67
2018-12-23T23:32:51.065Z,3.20
2018-12-23T23:35:20.304Z,3.80
2018-12-23T23:37:49.502Z,4.70
2018-12-23T23:40:18.695Z,4.17
2018-12-23T23:42:47.923Z,5.97
2018-12-23T23:45:17.110Z,5.37
2018-12-23T23:47:46.379Z,5.40
2018-12-23T23:50:15.598Z,4.60
2018-12-23T23:52:45.068Z,5.60
2018-12-23T23:55:14.346Z,5.17
2018-12-23T23:57:43.589Z,4.53
